Time;durP1;ratioP1;P1;durP2;ratioP2;P2;SDS_P1;SDS_P2;PMS_P1;PMS_P2;Temp;Humidity;BMP_temperature;BMP_pressure;BME280_temperature;BME280_humidity;BME280_pressure;Samples;Min_cycle;Max_cycle;Signal;HPM_P1;HPM_P2
2021/03/15 00:00:43;;;;;;;9.80;7.95;;;8.20;99.90;;;;;;5003259;28;20022;-75
2021/03/15 00:03:10;;;;;;;14.65;10.52;;;8.30;99.90;;;;;;5003081;28;20014;-69
2021/03/15 00:05:36;;;;;;;11.32;8.75;;;8.20;99.90;;;;;;5001385;28;20025;-67
2021/03/15 00:08:03;;;;;;;11.77;8.73;;;8.30;99.90;;;;;;5002095;28;20419;-72
2021/03/15 00:10:29;;;;;;;10.60;7.70;;;8.20;99.90;;;;;;5000778;28;20431;-67
2021/03/15 00:12:55;;;;;;;12.50;9.05;;;8.20;99.90;;;;;;5002283;28;20488;-75
2021/03/15 00:15:23;;;;;;;10.50;8.18;;;8.20;99.90;;;;;;5001055;28;20031;-70
2021/03/15 00:17:49;;;;;;;11.73;9.07;;;8.30;99.90;;;;;;5001631;28;20019;-67
2021/03/15 00:20:17;;;;;;;11.00;7.70;;;8.30;99.90;;;;;;4998360;28;20056;-67
2021/03/15 00:22:44;;;;;;;11.77;8.43;;;8.30;99.90;;;;;;5000423;28;20543;-68
2021/03/15 00:25:12;;;;;;;11.32;8.65;;;8.30;99.90;;;;;;4999703;28;20034;-72
2021/03/15 00:27:42;;;;;;;9.57;7.65;;;8.30;99.90;;;;;;5000466;28;20029;-73
2021/03/15 00:30:10;;;;;;;10.48;7.95;;;8.30;99.90;;;;;;5001349;28;20022;-68
2021/03/15 00:32:39;;;;;;;15.30;11.07;;;8.20;99.90;;;;;;4999816;28;20109;-66
2021/03/15 00:35:09;;;;;;;19.90;14.50;;;8.20;99.90;;;;;;5000264;28;20121;-66
2021/03/15 00:37:36;;;;;;;16.88;11.85;;;8.20;99.90;;;;;;5000349;28;20038;-68
2021/03/15 00:40:04;;;;;;;21.30;14.45;;;8.10;99.90;;;;;;5001620;28;20006;-73
2021/03/15 00:42:30;;;;;;;15.90;11.63;;;8.10;99.90;;;;;;5001169;28;20045;-65
2021/03/15 00:44:56;;;;;;;19.13;13.15;;;8.00;99.90;;;;;;5002480;28;20022;-65
2021/03/15 00:47:22;;;;;;;25.42;20.02;;;8.00;99.90;;;;;;5001630;28;20025;-71
2021/03/15 00:49:48;;;;;;;22.60;14.93;;;7.90;99.90;;;;;;5000716;28;20038;-68
2021/03/15 00:52:14;;;;;;;31.10;20.42;;;7.90;99.90;;;;;;5001427;28;20031;-68
2021/03/15 00:54:40;;;;;;;30.08;18.38;;;8.00;99.90;;;;;;5001308;28;20018;-74
2021/03/15 00:57:06;;;;;;;22.83;14.65;;;8.00;99.90;;;;;;4999925;28;20058;-65
2021/03/15 00:59:32;;;;;;;20.35;13.73;;;8.00;99.90;;;;;;4999140;28;20042;-74
2021/03/15 01:01:58;;;;;;;17.60;12.65;;;8.00;99.90;;;;;;4998634;28;20022;-73
2021/03/15 01:04:24;;;;;;;27.95;19.70;;;7.90;99.90;;;;;;5001376;28;20065;-66
2021/03/15 01:06:50;;;;;;;21.60;15.88;;;7.80;99.90;;;;;;4998155;28;20423;-68
2021/03/15 01:09:17;;;;;;;24.02;17.05;;;7.60;99.90;;;;;;4999839;28;20109;-68
2021/03/15 01:11:43;;;;;;;19.70;13.52;;;7.70;99.90;;;;;;5001267;28;20014;-73
2021/03/15 01:14:10;;;;;;;17.90;13.15;;;7.60;99.90;;;;;;4999946;28;20029;-67
2021/03/15 01:16:36;;;;;;;19.00;13.95;;;7.60;99.90;;;;;;4997959;28;20473;-66
2021/03/15 01:19:03;;;;;;;18.40;13.60;;;7.60;99.90;;;;;;4998222;28;20022;-68
2021/03/15 01:21:29;;;;;;;18.95;13.90;;;7.40;99.90;;;;;;4999856;28;20019;-70
2021/03/15 01:23:55;;;;;;;23.90;16.55;;;7.30;99.90;;;;;;4999273;28;20109;-69
2021/03/15 01:26:21;;;;;;;16.77;12.20;;;7.20;99.90;;;;;;4997979;28;20042;-68
2021/03/15 01:28:47;;;;;;;16.55;12.07;;;7.40;99.90;;;;;;4998778;28;20082;-67
2021/03/15 01:31:13;;;;;;;17.98;12.88;;;7.20;99.90;;;;;;5000586;28;20057;-73
2021/03/15 01:33:40;;;;;;;15.30;11.38;;;7.10;99.90;;;;;;4999497;28;20026;-67
2021/03/15 01:36:07;;;;;;;16.67;12.40;;;6.90;99.90;;;;;;5000411;28;20057;-66
2021/03/15 01:38:33;;;;;;;13.32;9.55;;;7.10;99.90;;;;;;5002159;28;20015;-68
2021/03/15 01:40:59;;;;;;;12.07;9.10;;;7.10;99.90;;;;;;4999221;28;20105;-70
2021/03/15 01:43:25;;;;;;;11.65;7.55;;;7.10;99.90;;;;;;4999888;28;20104;-73
2021/03/15 01:45:51;;;;;;;12.32;8.07;;;7.20;99.90;;;;;;4999293;28;20019;-73
2021/03/15 01:48:16;;;;;;;15.77;11.23;;;7.00;99.90;;;;;;4999582;28;20081;-69
2021/03/15 01:50:46;;;;;;;10.10;7.60;;;7.00;99.90;;;;;;5000126;28;20054;-69
2021/03/15 01:53:14;;;;;;;14.52;10.20;;;6.90;99.90;;;;;;4999779;28;20023;-67
2021/03/15 01:55:41;;;;;;;12.43;8.23;;;6.80;99.90;;;;;;5000358;28;20034;-68
2021/03/15 01:58:07;;;;;;;10.18;6.88;;;6.90;99.90;;;;;;5000705;28;20022;-72
2021/03/15 02:00:33;;;;;;;25.88;16.25;;;7.00;99.90;;;;;;5000804;28;20019;-70
2021/03/15 02:03:04;;;;;;;17.65;10.35;;;7.00;99.90;;;;;;4999139;28;20026;-73
2021/03/15 02:05:31;;;;;;;16.75;11.45;;;6.90;99.90;;;;;;4999288;28;20034;-74
2021/03/15 02:07:58;;;;;;;13.00;8.32;;;6.80;99.90;;;;;;4999764;28;20029;-70
2021/03/15 02:10:24;;;;;;;13.68;8.27;;;6.80;99.90;;;;;;5000342;28;20026;-71
2021/03/15 02:13:11;;;;;;;12.15;8.10;;;6.80;99.90;;;;;;4997648;28;20022;-73
2021/03/15 02:15:49;;;;;;;10.80;7.50;;;6.70;99.90;;;;;;4999856;28;20507;-70
2021/03/15 02:18:42;;;;;;;11.35;7.50;;;6.60;99.90;;;;;;4997455;28;20026;-66
2021/03/15 02:21:36;;;;;;;12.23;8.35;;;6.60;99.90;;;;;;4995417;28;20499;-72
2021/03/15 02:24:23;;;;;;;11.15;7.95;;;6.60;99.90;;;;;;4999913;28;20033;-73
2021/03/15 02:27:32;;;;;;;12.82;8.60;;;6.70;99.90;;;;;;4997825;28;20025;-71
2021/03/15 02:30:10;;;;;;;9.23;6.90;;;6.50;99.90;;;;;;4997834;28;20054;-73
2021/03/15 02:33:00;;;;;;;8.35;6.38;;;6.40;99.90;;;;;;4998298;28;20026;-68
2021/03/15 02:35:29;;;;;;;10.57;8.02;;;6.50;99.90;;;;;;4998152;28;20035;-69
2021/03/15 02:38:06;;;;;;;9.70;7.35;;;6.40;99.90;;;;;;4997674;28;20556;-69
2021/03/15 02:40:36;;;;;;;11.85;8.38;;;6.30;99.90;;;;;;4996862;28;20026;-73
2021/03/15 02:43:08;;;;;;;10.15;7.55;;;6.40;99.90;;;;;;4997427;28;20034;-73
2021/03/15 02:45:37;;;;;;;10.90;6.85;;;6.50;99.90;;;;;;5000835;28;20014;-67
2021/03/15 02:48:07;;;;;;;11.90;7.60;;;6.40;99.90;;;;;;4999996;28;20034;-67
2021/03/15 02:50:36;;;;;;;8.45;6.75;;;6.50;99.90;;;;;;4998396;28;20065;-73
2021/03/15 02:53:06;;;;;;;11.15;8.10;;;6.30;99.90;;;;;;4998296;28;20050;-67
2021/03/15 02:55:33;;;;;;;14.68;10.23;;;6.40;99.90;;;;;;4998906;28;20045;-72
2021/03/15 02:58:02;;;;;;;10.20;7.60;;;6.40;99.90;;;;;;5000126;28;20030;-73
2021/03/15 03:00:28;;;;;;;13.00;8.55;;;6.40;99.90;;;;;;4997560;28;20076;-70
2021/03/15 03:02:55;;;;;;;9.65;6.93;;;6.40;99.90;;;;;;4996263;28;20088;-67
2021/03/15 03:05:22;;;;;;;11.82;7.30;;;6.40;99.90;;;;;;4998738;28;20018;-69
2021/03/15 03:07:51;;;;;;;10.10;6.97;;;6.30;99.90;;;;;;4997922;28;20511;-67
2021/03/15 03:10:20;;;;;;;10.30;7.28;;;6.30;99.90;;;;;;4996625;28;20010;-72
2021/03/15 03:12:48;;;;;;;11.63;8.02;;;6.30;99.90;;;;;;4997672;28;20014;-69
2021/03/15 03:15:16;;;;;;;11.73;8.27;;;6.10;99.90;;;;;;4997873;28;20022;-74
2021/03/15 03:17:43;;;;;;;9.80;6.68;;;6.10;99.90;;;;;;4997556;28;20373;-74
2021/03/15 03:20:16;;;;;;;8.48;6.78;;;6.10;99.90;;;;;;4997442;28;20023;-67
2021/03/15 03:22:45;;;;;;;10.27;7.18;;;6.00;99.90;;;;;;4998873;28;20022;-71
2021/03/15 03:25:15;;;;;;;10.05;6.70;;;6.00;99.90;;;;;;4998276;28;20078;-70
2021/03/15 03:27:53;;;;;;;8.90;6.28;;;5.90;99.90;;;;;;4996838;28;20096;-74
2021/03/15 03:30:21;;;;;;;9.20;6.55;;;5.90;99.90;;;;;;4996036;28;20022;-75
2021/03/15 03:32:49;;;;;;;8.85;6.95;;;5.80;99.90;;;;;;4995772;28;20014;-74
2021/03/15 03:35:15;;;;;;;12.07;7.85;;;5.90;99.90;;;;;;4996027;28;20030;-71
2021/03/15 03:37:41;;;;;;;9.18;6.00;;;6.00;99.90;;;;;;4994608;28;20365;-74
2021/03/15 03:40:07;;;;;;;7.90;5.78;;;5.90;99.90;;;;;;4996990;28;20027;-73
2021/03/15 03:42:33;;;;;;;7.75;6.05;;;5.70;99.90;;;;;;4997067;28;20027;-74
2021/03/15 03:44:59;;;;;;;6.70;4.97;;;5.70;99.90;;;;;;4996463;28;20006;-74
2021/03/15 03:47:26;;;;;;;7.07;5.47;;;5.70;99.90;;;;;;4998026;28;20030;-69
2021/03/15 03:49:51;;;;;;;21.40;14.45;;;5.60;99.90;;;;;;4995618;28;20039;-74
2021/03/15 03:52:21;;;;;;;13.07;7.65;;;5.50;99.90;;;;;;4996491;28;20054;-73
2021/03/15 03:54:49;;;;;;;26.27;14.45;;;5.60;99.90;;;;;;4996175;28;20014;-74
2021/03/15 03:57:31;;;;;;;11.20;7.18;;;5.50;99.90;;;;;;4997664;28;20030;-69
2021/03/15 04:00:01;;;;;;;8.18;5.05;;;5.60;99.90;;;;;;4996227;28;20472;-74
2021/03/15 04:02:28;;;;;;;14.02;9.45;;;5.50;99.90;;;;;;4993994;28;20029;-74
2021/03/15 04:05:01;;;;;;;6.80;5.32;;;5.40;99.90;;;;;;4999895;28;20073;-71
2021/03/15 04:07:27;;;;;;;9.80;7.10;;;5.50;99.90;;;;;;4999944;28;20492;-74
2021/03/15 04:10:03;;;;;;;6.55;5.50;;;5.20;99.90;;;;;;4998845;28;20018;-69
2021/03/15 04:12:32;;;;;;;7.80;6.40;;;5.20;99.90;;;;;;4999152;28;20026;-74
2021/03/15 04:15:00;;;;;;;7.20;6.10;;;5.20;99.90;;;;;;4999482;28;20030;-74
2021/03/15 04:17:40;;;;;;;7.72;5.28;;;5.10;99.90;;;;;;4999330;28;20050;-70
2021/03/15 04:20:11;;;;;;;10.60;7.00;;;5.20;99.90;;;;;;4999129;28;20385;-72
2021/03/15 04:22:45;;;;;;;8.18;6.20;;;4.90;99.90;;;;;;4999552;28;20412;-74
2021/03/15 04:25:12;;;;;;;6.90;5.47;;;5.00;99.90;;;;;;4999516;28;20034;-68
2021/03/15 04:27:42;;;;;;;9.57;7.68;;;4.90;99.90;;;;;;4999572;28;20026;-74
2021/03/15 04:30:10;;;;;;;12.13;8.18;;;4.80;99.90;;;;;;4998146;28;20022;-72
2021/03/15 04:32:36;;;;;;;14.93;8.55;;;5.00;99.90;;;;;;4999758;28;20362;-72
2021/03/15 04:35:03;;;;;;;9.63;8.15;;;5.00;99.90;;;;;;5001179;28;20019;-74
2021/03/15 04:37:30;;;;;;;13.10;9.93;;;5.10;99.90;;;;;;4998995;28;20507;-74
2021/03/15 04:39:56;;;;;;;13.18;10.43;;;5.00;99.90;;;;;;5001645;28;20019;-74
2021/03/15 04:42:22;;;;;;;20.60;15.30;;;5.00;99.90;;;;;;4999803;28;20022;-70
2021/03/15 04:44:48;;;;;;;15.40;12.07;;;5.00;99.90;;;;;;4998567;28;20030;-70
2021/03/15 04:47:15;;;;;;;16.63;12.85;;;5.10;99.90;;;;;;5001465;28;20026;-74
2021/03/15 04:49:41;;;;;;;15.48;11.77;;;5.10;99.90;;;;;;4997424;28;20096;-69
2021/03/15 04:52:10;;;;;;;14.57;10.60;;;5.10;99.90;;;;;;4997038;28;20026;-74
2021/03/15 04:54:36;;;;;;;20.83;15.85;;;5.10;99.90;;;;;;4997630;28;20023;-68
2021/03/15 04:57:04;;;;;;;16.83;14.13;;;5.20;99.90;;;;;;4996796;28;20034;-69
2021/03/15 04:59:31;;;;;;;10.27;9.00;;;5.10;99.90;;;;;;4997436;28;20034;-74
2021/03/15 05:01:59;;;;;;;12.80;11.35;;;5.00;99.90;;;;;;4997565;28;20023;-73
2021/03/15 05:04:25;;;;;;;11.55;9.23;;;5.00;99.90;;;;;;4998056;28;20037;-72
2021/03/15 05:06:53;;;;;;;10.25;8.40;;;4.80;99.90;;;;;;4998869;28;20457;-74
2021/03/15 05:09:19;;;;;;;8.93;7.63;;;4.90;99.90;;;;;;4997665;28;20026;-68
2021/03/15 05:11:46;;;;;;;12.18;9.18;;;4.80;99.90;;;;;;4999020;28;20026;-69
2021/03/15 05:14:12;;;;;;;11.27;8.68;;;4.80;99.90;;;;;;5000238;28;20018;-68
2021/03/15 05:16:40;;;;;;;10.35;8.60;;;4.70;99.90;;;;;;5000937;28;20026;-74
2021/03/15 05:19:11;;;;;;;11.98;8.13;;;4.90;99.90;;;;;;4999386;28;20073;-74
2021/03/15 05:21:40;;;;;;;9.95;8.50;;;4.70;99.90;;;;;;5000522;28;20480;-74
2021/03/15 05:24:07;;;;;;;15.05;10.88;;;4.70;99.90;;;;;;5001743;28;20073;-68
2021/03/15 05:26:37;;;;;;;12.32;8.98;;;4.70;99.90;;;;;;4999430;28;20103;-74
2021/03/15 05:29:04;;;;;;;14.25;10.05;;;4.50;99.90;;;;;;4999395;28;20018;-74
2021/03/15 05:31:31;;;;;;;13.35;9.13;;;4.50;99.90;;;;;;4998717;28;20014;-74
2021/03/15 05:34:00;;;;;;;12.88;9.30;;;4.50;99.90;;;;;;5000802;28;20003;-72
2021/03/15 05:36:28;;;;;;;13.00;8.73;;;4.60;99.90;;;;;;4998477;28;20050;-70
2021/03/15 05:38:55;;;;;;;12.43;8.57;;;4.40;99.90;;;;;;4997054;28;20030;-74
2021/03/15 05:41:41;;;;;;;10.50;8.27;;;4.30;99.90;;;;;;4996169;28;20022;-72
2021/03/15 05:44:25;;;;;;;15.52;10.20;;;4.50;99.90;;;;;;4995884;28;20022;-74
2021/03/15 05:47:27;;;;;;;13.05;10.05;;;4.40;99.90;;;;;;4997016;28;20025;-74
2021/03/15 05:50:19;;;;;;;26.05;16.77;;;4.20;99.90;;;;;;4996863;28;20049;-67
2021/03/15 05:53:13;;;;;;;18.70;11.65;;;4.10;99.90;;;;;;4988611;28;20030;-70
2021/03/15 05:56:05;;;;;;;16.75;11.25;;;4.10;99.90;;;;;;4995032;28;20034;-75
2021/03/15 05:58:56;;;;;;;15.27;10.57;;;4.10;99.90;;;;;;4996445;28;20073;-69
2021/03/15 06:01:40;;;;;;;15.73;10.40;;;3.80;99.90;;;;;;4997213;28;20061;-73
2021/03/15 06:04:18;;;;;;;20.38;14.13;;;3.80;99.90;;;;;;4997200;28;20502;-71
2021/03/15 06:06:47;;;;;;;15.98;12.80;;;3.80;99.90;;;;;;4995491;28;20036;-67
2021/03/15 06:09:25;;;;;;;13.73;10.10;;;3.60;99.90;;;;;;4996234;28;20538;-73
2021/03/15 06:11:59;;;;;;;15.93;11.43;;;3.60;99.90;;;;;;4997814;28;20041;-68
2021/03/15 06:14:27;;;;;;;14.25;10.45;;;3.60;99.90;;;;;;4999066;28;20368;-69
2021/03/15 06:16:55;;;;;;;17.27;11.95;;;3.50;99.90;;;;;;4995967;28;20030;-69
2021/03/15 06:19:22;;;;;;;17.25;11.32;;;3.50;99.90;;;;;;4997498;28;20057;-69
2021/03/15 06:21:48;;;;;;;16.05;11.82;;;3.30;99.90;;;;;;4998135;28;20404;-68
2021/03/15 06:24:14;;;;;;;18.85;13.68;;;3.30;99.90;;;;;;5001967;28;20011;-73
2021/03/15 06:26:41;;;;;;;16.13;12.27;;;3.40;99.90;;;;;;4999540;28;20033;-73
2021/03/15 06:29:07;;;;;;;18.27;13.82;;;3.40;99.90;;;;;;4996215;28;20371;-73
2021/03/15 06:31:34;;;;;;;14.75;11.10;;;3.40;99.90;;;;;;4996762;28;20025;-75
2021/03/15 06:34:00;;;;;;;11.75;9.50;;;3.40;99.90;;;;;;4996067;28;20031;-69
2021/03/15 06:36:26;;;;;;;14.20;10.70;;;3.40;99.90;;;;;;4995995;28;20472;-75
2021/03/15 06:38:55;;;;;;;11.82;9.85;;;3.30;99.90;;;;;;4996849;28;20049;-75
2021/03/15 06:41:25;;;;;;;11.88;9.23;;;3.30;99.90;;;;;;4996011;28;20114;-74
2021/03/15 06:43:51;;;;;;;13.90;10.35;;;3.30;99.90;;;;;;4997811;28;20022;-69
2021/03/15 06:46:19;;;;;;;16.40;11.68;;;3.30;99.90;;;;;;4995138;28;20094;-71
2021/03/15 06:48:45;;;;;;;14.93;10.23;;;3.50;99.90;;;;;;4995508;28;20065;-67
2021/03/15 06:51:11;;;;;;;15.38;12.15;;;3.50;99.90;;;;;;4996532;28;20094;-69
2021/03/15 06:53:41;;;;;;;21.17;15.35;;;3.60;99.90;;;;;;4997443;28;20117;-67
2021/03/15 06:56:15;;;;;;;33.33;20.52;;;3.60;99.90;;;;;;4998927;28;20034;-69
2021/03/15 06:58:52;;;;;;;13.13;10.45;;;3.60;99.90;;;;;;4999569;28;20026;-72
2021/03/15 07:01:26;;;;;;;56.55;31.17;;;3.60;99.90;;;;;;4998400;28;20563;-69
2021/03/15 07:04:13;;;;;;;84.90;57.65;;;3.60;99.90;;;;;;4997694;28;20018;-68
2021/03/15 07:06:41;;;;;;;71.38;57.80;;;3.60;99.90;;;;;;4995684;28;20026;-66
2021/03/15 07:09:16;;;;;;;123.75;80.80;;;3.70;99.90;;;;;;4997833;28;20030;-67
2021/03/15 07:11:43;;;;;;;91.07;58.03;;;3.80;99.90;;;;;;4997095;28;20093;-71
2021/03/15 07:14:22;;;;;;;67.18;42.15;;;3.90;99.90;;;;;;4999615;28;20018;-68
2021/03/15 07:16:57;;;;;;;45.13;29.38;;;3.80;99.90;;;;;;4997043;28;20380;-74
2021/03/15 07:19:23;;;;;;;70.70;40.63;;;4.10;99.90;;;;;;4998118;28;20033;-68
2021/03/15 07:21:49;;;;;;;64.07;41.53;;;4.00;99.90;;;;;;4998233;28;20034;-68
2021/03/15 07:24:16;;;;;;;60.58;42.40;;;4.00;99.90;;;;;;4996655;28;20065;-71
2021/03/15 07:26:46;;;;;;;34.63;24.77;;;3.90;99.90;;;;;;4997292;28;20022;-74
2021/03/15 07:29:18;;;;;;;29.40;20.45;;;4.00;99.90;;;;;;4997574;28;20037;-68
2021/03/15 07:31:49;;;;;;;32.88;24.10;;;4.00;99.90;;;;;;4996962;28;20372;-75
2021/03/15 07:34:19;;;;;;;31.67;20.58;;;4.10;99.90;;;;;;4996335;28;20451;-71
2021/03/15 07:36:57;;;;;;;48.40;35.42;;;4.20;99.90;;;;;;4996383;28;20046;-71
2021/03/15 07:39:24;;;;;;;75.15;55.47;;;4.30;99.90;;;;;;4998982;28;20022;-68
2021/03/15 07:41:54;;;;;;;121.43;83.65;;;4.20;99.90;;;;;;4999335;28;20026;-74
2021/03/15 07:44:30;;;;;;;65.95;43.60;;;4.20;99.90;;;;;;4997968;28;20029;-67
2021/03/15 07:47:02;;;;;;;32.45;21.52;;;4.20;99.90;;;;;;5000347;28;20065;-70
2021/03/15 07:49:35;;;;;;;142.85;93.80;;;4.20;99.90;;;;;;5000036;28;20111;-73
2021/03/15 07:52:04;;;;;;;59.47;35.92;;;4.20;99.90;;;;;;5001996;28;20380;-73
2021/03/15 07:54:36;;;;;;;127.93;79.93;;;4.30;99.90;;;;;;5000613;28;20026;-73
2021/03/15 07:57:24;;;;;;;150.25;102.68;;;4.20;99.90;;;;;;5001867;28;20037;-72
2021/03/15 07:59:57;;;;;;;84.50;32.08;;;4.30;99.90;;;;;;4999686;28;20026;-67
2021/03/15 08:02:31;;;;;;;175.55;125.45;;;4.40;99.90;;;;;;4998207;28;20056;-67
2021/03/15 08:04:59;;;;;;;63.28;41.08;;;4.40;99.90;;;;;;5001868;28;20019;-71
2021/03/15 08:07:25;;;;;;;51.92;35.75;;;4.50;99.90;;;;;;5002726;28;20022;-75
2021/03/15 08:09:55;;;;;;;47.55;38.05;;;4.40;99.90;;;;;;5000973;28;20023;-70
2021/03/15 08:12:27;;;;;;;58.10;35.28;;;4.40;99.90;;;;;;5000542;28;20036;-67
2021/03/15 08:15:08;;;;;;;54.35;35.78;;;4.40;99.90;;;;;;4999951;28;20022;-69
2021/03/15 08:17:45;;;;;;;34.05;22.67;;;4.40;99.90;;;;;;5002337;28;20048;-68
2021/03/15 08:20:12;;;;;;;39.47;25.27;;;4.50;99.90;;;;;;5004815;28;20023;-73
2021/03/15 08:22:42;;;;;;;38.28;24.85;;;4.40;99.90;;;;;;5000750;28;20033;-71
2021/03/15 08:25:09;;;;;;;47.63;30.25;;;4.40;99.90;;;;;;5000038;28;20018;-69
2021/03/15 08:27:41;;;;;;;32.80;22.92;;;4.40;99.90;;;;;;5000353;28;20041;-74
2021/03/15 08:30:29;;;;;;;71.07;41.75;;;4.40;99.90;;;;;;4997907;28;20101;-74
2021/03/15 08:32:56;;;;;;;52.80;33.55;;;4.50;99.90;;;;;;5000218;28;20041;-74
2021/03/15 08:35:22;;;;;;;93.97;53.80;;;4.40;99.90;;;;;;5000292;28;20011;-73
2021/03/15 08:38:16;;;;;;;108.22;58.45;;;4.50;99.90;;;;;;4998948;28;20054;-68
2021/03/15 08:40:44;;;;;;;22.23;14.40;;;4.60;99.90;;;;;;4996629;28;20553;-72
2021/03/15 08:43:35;;;;;;;46.85;26.52;;;4.70;99.90;;;;;;4999580;28;20026;-69
2021/03/15 08:46:05;;;;;;;17.55;12.25;;;4.90;99.90;;;;;;4998571;28;20023;-75
2021/03/15 08:48:36;;;;;;;15.90;10.43;;;4.90;99.90;;;;;;5003597;28;20010;-76
2021/03/15 08:51:06;;;;;;;11.60;8.15;;;5.00;99.90;;;;;;4997371;28;20184;-74
2021/03/15 08:53:41;;;;;;;33.38;24.80;;;5.00;99.90;;;;;;5001192;28;20030;-74
2021/03/15 08:56:17;;;;;;;22.75;14.30;;;5.00;99.90;;;;;;4998838;28;20487;-75
2021/03/15 08:58:50;;;;;;;63.90;34.30;;;5.00;99.90;;;;;;4998622;28;20108;-68
2021/03/15 09:01:20;;;;;;;82.45;38.22;;;5.00;99.90;;;;;;4998682;28;20037;-75
2021/03/15 09:03:54;;;;;;;66.97;33.85;;;5.00;99.90;;;;;;5001648;28;20543;-68
2021/03/15 09:06:32;;;;;;;27.55;17.27;;;5.00;99.90;;;;;;5000548;28;20022;-74
2021/03/15 09:09:00;;;;;;;31.60;19.85;;;5.00;99.90;;;;;;5003510;28;20029;-74
2021/03/15 09:11:38;;;;;;;36.05;24.73;;;5.00;99.90;;;;;;4999999;28;20034;-74
2021/03/15 09:14:16;;;;;;;35.40;22.67;;;5.00;99.90;;;;;;4996946;28;20041;-75
2021/03/15 09:17:15;;;;;;;22.23;16.42;;;5.00;99.90;;;;;;5000201;28;20108;-70
2021/03/15 09:19:47;;;;;;;29.65;17.00;;;4.90;99.90;;;;;;5001080;28;20037;-69
2021/03/15 09:22:34;;;;;;;21.90;15.50;;;5.00;99.90;;;;;;5002248;28;20026;-74
2021/03/15 09:25:05;;;;;;;27.35;15.57;;;5.00;99.90;;;;;;5000577;28;20464;-75
2021/03/15 09:27:45;;;;;;;32.55;20.15;;;5.10;99.90;;;;;;5001294;28;20192;-74
2021/03/15 09:30:25;;;;;;;26.25;17.45;;;5.00;99.90;;;;;;4996754;28;20105;-68
2021/03/15 09:32:55;;;;;;;23.38;14.27;;;5.00;99.90;;;;;;4986021;28;20022;-74
2021/03/15 09:35:25;;;;;;;31.02;16.50;;;5.00;99.90;;;;;;4984474;28;20023;-75
2021/03/15 09:37:54;;;;;;;70.88;36.75;;;5.10;99.90;;;;;;4984647;28;20050;-73
2021/03/15 09:40:35;;;;;;;57.88;36.35;;;5.00;99.90;;;;;;4980205;28;20023;-71
2021/03/15 09:43:02;;;;;;;171.65;106.03;;;5.10;99.90;;;;;;4982452;28;20053;-76
2021/03/15 09:45:30;;;;;;;313.50;219.55;;;5.00;99.90;;;;;;4978327;28;20046;-69
2021/03/15 09:47:57;;;;;;;61.83;41.17;;;5.00;99.90;;;;;;4980420;28;20409;-75
2021/03/15 09:50:26;;;;;;;18.70;13.35;;;5.00;99.90;;;;;;4980541;28;20042;-75
2021/03/15 09:52:53;;;;;;;22.50;14.77;;;5.00;99.90;;;;;;4979930;28;20027;-68
2021/03/15 09:55:19;;;;;;;33.55;19.67;;;5.00;99.90;;;;;;4980578;28;20109;-68
2021/03/15 09:57:45;;;;;;;49.28;30.17;;;5.00;99.90;;;;;;4982849;28;20030;-68
2021/03/15 10:00:12;;;;;;;74.50;41.38;;;5.00;99.90;;;;;;4984807;28;20029;-67
2021/03/15 10:02:38;;;;;;;46.65;28.48;;;5.00;99.90;;;;;;4982651;28;20031;-68
2021/03/15 10:05:06;;;;;;;50.75;30.05;;;5.00;99.90;;;;;;4982749;28;20467;-69
2021/03/15 10:07:34;;;;;;;48.72;30.80;;;5.10;99.90;;;;;;4985666;28;20018;-67
2021/03/15 10:10:21;;;;;;;41.42;22.55;;;5.10;99.90;;;;;;4985061;28;20040;-68
2021/03/15 10:12:49;;;;;;;33.92;18.08;;;5.10;99.90;;;;;;4993266;28;20011;-67
2021/03/15 10:15:17;;;;;;;30.27;15.95;;;5.20;99.90;;;;;;4985269;28;20031;-67
2021/03/15 10:17:44;;;;;;;51.13;25.38;;;5.20;99.90;;;;;;4994597;28;20062;-68
2021/03/15 10:20:22;;;;;;;78.30;38.15;;;5.20;99.90;;;;;;4987226;28;20022;-67
2021/03/15 10:22:49;;;;;;;54.47;25.30;;;5.20;99.90;;;;;;5002320;28;20102;-74
2021/03/15 10:25:15;;;;;;;57.92;27.95;;;5.20;99.90;;;;;;5003263;28;20045;-72
2021/03/15 10:27:54;;;;;;;71.30;36.28;;;5.40;99.90;;;;;;5001985;28;19999;-75
2021/03/15 10:30:26;;;;;;;59.70;34.63;;;5.30;99.90;;;;;;5003189;28;20018;-71
2021/03/15 10:32:53;;;;;;;44.33;25.70;;;5.30;99.90;;;;;;4999206;28;20014;-77
2021/03/15 10:35:20;;;;;;;52.28;30.98;;;5.30;99.90;;;;;;4999476;28;20030;-76
2021/03/15 10:37:51;;;;;;;57.55;36.05;;;5.30;99.90;;;;;;5001933;28;20105;-73
2021/03/15 10:40:20;;;;;;;36.10;25.90;;;5.30;99.90;;;;;;5003559;28;20495;-68
2021/03/15 10:42:47;;;;;;;45.10;30.75;;;5.30;99.90;;;;;;4993689;28;20026;-67
2021/03/15 10:45:14;;;;;;;52.35;35.03;;;5.40;99.90;;;;;;4984915;28;20019;-67
2021/03/15 10:47:40;;;;;;;48.47;30.90;;;5.30;99.90;;;;;;4984932;28;20026;-68
2021/03/15 10:50:35;;;;;;;42.05;28.00;;;5.40;99.90;;;;;;4983263;28;20043;-67
2021/03/15 10:53:24;;;;;;;37.38;25.65;;;5.40;99.90;;;;;;4984154;28;20149;-67
2021/03/15 10:55:51;;;;;;;39.72;27.17;;;5.30;99.90;;;;;;4992560;28;20042;-67
2021/03/15 10:58:21;;;;;;;42.15;28.30;;;5.40;99.90;;;;;;4991026;28;20027;-66
2021/03/15 11:00:49;;;;;;;34.90;23.45;;;5.40;99.90;;;;;;4983252;28;20023;-68
2021/03/15 11:03:29;;;;;;;35.03;24.65;;;5.40;99.90;;;;;;4983296;28;20022;-75
2021/03/15 11:06:27;;;;;;;33.08;20.45;;;5.40;99.90;;;;;;4985035;28;20026;-66
2021/03/15 11:08:58;;;;;;;30.67;22.70;;;5.40;99.90;;;;;;4984864;28;20066;-67
2021/03/15 11:11:29;;;;;;;38.30;27.55;;;5.50;99.90;;;;;;4983704;28;20010;-68
2021/03/15 11:13:58;;;;;;;50.97;29.48;;;5.50;99.90;;;;;;4989404;28;20126;-70
2021/03/15 11:16:35;;;;;;;39.88;26.50;;;5.50;99.90;;;;;;4991534;28;20039;-66
2021/03/15 11:19:03;;;;;;;61.92;35.58;;;5.50;99.90;;;;;;4979473;28;20030;-66
2021/03/15 11:21:33;;;;;;;80.15;42.40;;;5.50;99.90;;;;;;4985565;28;20078;-66
2021/03/15 11:24:00;;;;;;;58.30;35.83;;;5.60;99.90;;;;;;4988430;28;20041;-66
2021/03/15 11:26:27;;;;;;;65.25;38.05;;;5.70;99.90;;;;;;4988181;28;20420;-70
2021/03/15 11:28:55;;;;;;;47.97;30.98;;;5.60;99.90;;;;;;4987233;28;20019;-68
2021/03/15 11:31:27;;;;;;;62.97;38.15;;;5.50;99.90;;;;;;4990810;28;20019;-73
2021/03/15 11:33:59;;;;;;;62.10;38.50;;;5.60;99.90;;;;;;4996483;28;20050;-74
2021/03/15 11:36:27;;;;;;;58.58;34.85;;;5.60;99.90;;;;;;4991985;28;20038;-66
2021/03/15 11:38:59;;;;;;;48.63;30.10;;;5.60;99.90;;;;;;4988208;28;20105;-71
2021/03/15 11:41:32;;;;;;;56.95;35.33;;;5.70;99.90;;;;;;4996690;28;20443;-69
2021/03/15 11:43:59;;;;;;;38.35;26.25;;;5.60;99.90;;;;;;5002877;28;20058;-73
2021/03/15 11:46:25;;;;;;;46.92;29.77;;;5.50;99.90;;;;;;5001746;28;20027;-71
2021/03/15 11:48:51;;;;;;;43.90;27.23;;;5.60;99.90;;;;;;5005058;28;20007;-67
2021/03/15 11:51:17;;;;;;;42.60;28.02;;;5.60;99.90;;;;;;5000294;28;20106;-66
2021/03/15 11:53:44;;;;;;;37.67;24.80;;;5.60;99.90;;;;;;5003005;28;20014;-69
2021/03/15 11:56:10;;;;;;;56.85;31.67;;;5.60;99.90;;;;;;4998761;28;20034;-73
2021/03/15 11:58:36;;;;;;;47.58;27.58;;;5.60;99.90;;;;;;4998728;28;20484;-68
2021/03/15 12:01:03;;;;;;;61.25;35.90;;;5.50;99.90;;;;;;5002203;28;20046;-71
2021/03/15 12:03:29;;;;;;;58.75;32.83;;;5.50;99.90;;;;;;5004214;28;20018;-74
2021/03/15 12:05:55;;;;;;;49.42;29.73;;;5.60;99.90;;;;;;5004767;28;20023;-72
2021/03/15 12:08:21;;;;;;;44.97;28.33;;;5.60;99.90;;;;;;5004585;28;20028;-66
2021/03/15 12:10:47;;;;;;;48.30;27.50;;;5.60;99.90;;;;;;5003515;28;20026;-70
2021/03/15 12:13:14;;;;;;;46.35;28.08;;;5.60;99.90;;;;;;5004731;28;20161;-65
2021/03/15 12:15:41;;;;;;;41.75;25.38;;;5.60;99.90;;;;;;5002921;28;20026;-68
2021/03/15 12:18:07;;;;;;;50.17;30.60;;;5.60;99.90;;;;;;5004759;28;19994;-72
2021/03/15 12:20:35;;;;;;;59.60;38.55;;;5.60;99.90;;;;;;5001392;28;20026;-76
2021/03/15 12:23:03;;;;;;;50.05;32.33;;;5.50;99.90;;;;;;4998634;28;20045;-70
2021/03/15 12:25:29;;;;;;;55.15;32.47;;;5.40;99.90;;;;;;4998669;28;20030;-66
2021/03/15 12:27:55;;;;;;;65.40;38.20;;;5.40;99.90;;;;;;5001015;28;20503;-69
2021/03/15 12:30:21;;;;;;;66.18;41.63;;;5.40;99.90;;;;;;5002228;28;20025;-67
2021/03/15 12:32:49;;;;;;;57.38;36.63;;;5.40;99.90;;;;;;5000255;28;20018;-71
2021/03/15 12:35:16;;;;;;;41.42;28.30;;;5.40;99.90;;;;;;5000341;28;20421;-66
2021/03/15 12:37:42;;;;;;;53.17;31.15;;;5.50;99.90;;;;;;4986667;28;20109;-66
2021/03/15 12:40:08;;;;;;;50.35;30.23;;;5.60;99.90;;;;;;4986050;28;20060;-66
2021/03/15 12:42:35;;;;;;;47.72;28.85;;;5.60;99.90;;;;;;4985502;28;20121;-70
2021/03/15 12:45:01;;;;;;;39.97;23.63;;;5.70;99.90;;;;;;4993718;28;20034;-67
2021/03/15 12:47:27;;;;;;;46.10;24.63;;;5.80;99.90;;;;;;4995188;28;20086;-74
2021/03/15 12:49:53;;;;;;;47.65;26.73;;;5.90;99.90;;;;;;4999301;28;20054;-72
2021/03/15 12:52:19;;;;;;;52.45;29.70;;;5.90;99.90;;;;;;4999443;28;20033;-73
2021/03/15 12:54:45;;;;;;;34.63;22.75;;;5.90;99.90;;;;;;5000137;28;20457;-71
2021/03/15 12:57:11;;;;;;;33.13;20.95;;;5.90;99.90;;;;;;4997629;28;20042;-69